Time;durP1;ratioP1;P1;durP2;ratioP2;P2;SDS_P1;SDS_P2;PMS_P1;PMS_P2;Temp;Humidity;BMP_temperature;BMP_pressure;BME280_temperature;BME280_humidity;BME280_pressure;Samples;Min_cycle;Max_cycle;Signal;HPM_P1;HPM_P2
2022/08/17 00:01:00;;;;;;;;;;;13.00;99.90;;;;;;5134473;27;20368;-72
2022/08/17 00:03:25;;;;;;;;;;;13.00;99.90;;;;;;5134808;27;20366;-73
2022/08/17 00:05:52;;;;;;;;;;;12.80;99.90;;;;;;5133624;27;19908;-71
2022/08/17 00:08:20;;;;;;;;;;;12.80;99.90;;;;;;5134920;27;20320;-72
2022/08/17 00:10:46;;;;;;;;;;;12.80;99.90;;;;;;5133668;27;19907;-72
2022/08/17 00:13:23;;;;;;;;;;;12.80;99.90;;;;;;5134800;27;19907;-72
2022/08/17 00:15:49;;;;;;;;;;;12.80;99.90;;;;;;5134144;27;19949;-72
2022/08/17 00:18:15;;;;;;;;;;;12.70;99.90;;;;;;5134408;27;19912;-72
2022/08/17 00:20:42;;;;;;;;;;;12.70;99.90;;;;;;5133837;27;19903;-72
2022/08/17 00:23:17;;;;;;;;;;;12.60;99.90;;;;;;5134696;27;20366;-73
2022/08/17 00:25:44;;;;;;;;;;;12.60;99.90;;;;;;5134001;27;19939;-72
2022/08/17 00:28:11;;;;;;;;;;;12.60;99.90;;;;;;5134208;27;20424;-72
2022/08/17 00:30:37;;;;;;;;;;;12.60;99.90;;;;;;5133734;27;20355;-72
2022/08/17 00:33:14;;;;;;;;;;;12.60;99.90;;;;;;5133418;27;19914;-72
2022/08/17 00:35:39;;;;;;;;;;;12.60;99.90;;;;;;5134134;27;19903;-72
2022/08/17 00:38:08;;;;;;;;;;;12.60;99.90;;;;;;5134598;27;20259;-72
2022/08/17 00:40:41;;;;;;;;;;;12.60;99.90;;;;;;5134083;27;19938;-72
2022/08/17 00:43:14;;;;;;;;;;;12.50;99.90;;;;;;5134073;27;19942;-72
2022/08/17 00:45:41;;;;;;;;;;;12.50;99.90;;;;;;5133762;27;20011;-72
2022/08/17 00:48:07;;;;;;;;;;;12.40;99.90;;;;;;5134098;27;20413;-72
2022/08/17 00:50:33;;;;;;;;;;;12.50;99.90;;;;;;5133854;27;19946;-72
2022/08/17 00:52:59;;;;;;;;;;;12.50;99.90;;;;;;5133190;27;20567;-72
2022/08/17 00:55:25;;;;;;;;;;;12.60;99.90;;;;;;5134100;27;19911;-72
2022/08/17 00:57:52;;;;;;;;;;;12.60;99.90;;;;;;5133320;27;19915;-73
2022/08/17 01:00:47;;;;;;;;;;;12.60;99.90;;;;;;5133990;27;19903;-73
2022/08/17 01:03:15;;;;;;;;;;;12.50;99.90;;;;;;5111757;27;19907;-73
2022/08/17 01:05:41;;;;;;;;;;;12.60;99.90;;;;;;5115040;27;19910;-74
2022/08/17 01:08:09;;;;;;;;;;;12.60;99.90;;;;;;5133843;27;19903;-73
2022/08/17 01:10:38;;;;;;;;;;;12.60;99.90;;;;;;5133424;27;19956;-72
2022/08/17 01:13:04;;;;;;;;;;;12.60;99.90;;;;;;5133067;27;19903;-72
2022/08/17 01:15:32;;;;;;;;;;;12.60;99.90;;;;;;5133950;28;20396;-72
2022/08/17 01:17:58;;;;;;;;;;;12.60;99.90;;;;;;5113941;28;20280;-72
2022/08/17 01:20:24;;;;;;;;;;;12.70;99.90;;;;;;5133561;28;20344;-72
2022/08/17 01:22:50;;;;;;;;;;;12.70;99.90;;;;;;5133180;28;19903;-72
2022/08/17 01:25:16;;;;;;;;;;;12.80;99.90;;;;;;5133654;28;19910;-72
2022/08/17 01:27:42;;;;;;;;;;;12.80;99.90;;;;;;5114858;28;19904;-72
2022/08/17 01:30:10;;;;;;;;;;;12.80;99.90;;;;;;5133181;28;20251;-72
2022/08/17 01:32:35;;;;;;;;;;;12.90;99.90;;;;;;5133149;28;19903;-72
2022/08/17 01:35:01;;;;;;;;;;;12.80;99.90;;;;;;5132636;28;20414;-72
2022/08/17 01:37:28;;;;;;;;;;;12.90;99.90;;;;;;5115228;28;19904;-72
2022/08/17 01:40:01;;;;;;;;;;;12.90;99.90;;;;;;5133041;28;20339;-72
2022/08/17 01:42:36;;;;;;;;;;;12.90;99.90;;;;;;5114820;28;19915;-72
2022/08/17 01:45:17;;;;;;;;;;;12.90;99.90;;;;;;5132862;28;19914;-73
2022/08/17 01:47:43;;;;;;;;;;;12.90;99.90;;;;;;5133016;28;20396;-73
2022/08/17 01:50:10;;;;;;;;;;;13.00;99.90;;;;;;5133101;28;20328;-72
2022/08/17 01:52:37;;;;;;;;;;;12.90;99.90;;;;;;5132755;28;20409;-72
2022/08/17 01:55:03;;;;;;;;;;;12.90;99.90;;;;;;5132557;28;20379;-72
2022/08/17 01:57:28;;;;;;;;;;;12.90;99.90;;;;;;5133417;28;19907;-72
2022/08/17 01:59:54;;;;;;;;;;;12.90;99.90;;;;;;5132837;28;19904;-72
2022/08/17 02:02:19;;;;;;;;;;;12.80;99.90;;;;;;5133460;28;19939;-72
2022/08/17 02:04:45;;;;;;;;;;;12.80;99.90;;;;;;5132258;28;19950;-73
2022/08/17 02:07:10;;;;;;;;;;;12.80;99.90;;;;;;5133285;28;19904;-72
2022/08/17 02:09:36;;;;;;;;;;;12.80;99.90;;;;;;5133325;28;20343;-72
2022/08/17 02:12:02;;;;;;;;;;;12.80;99.90;;;;;;5132294;28;19912;-72
2022/08/17 02:14:28;;;;;;;;;;;12.90;99.90;;;;;;5133223;28;19957;-72
2022/08/17 02:16:54;;;;;;;;;;;12.90;99.90;;;;;;5132676;28;19904;-73
2022/08/17 02:19:21;;;;;;;;;;;12.90;99.90;;;;;;5133042;28;19915;-73
2022/08/17 02:21:47;;;;;;;;;;;13.00;99.90;;;;;;5132694;28;19910;-73
2022/08/17 02:24:24;;;;;;;;;;;13.00;99.90;;;;;;5132959;28;20005;-73
2022/08/17 02:26:50;;;;;;;;;;;13.00;99.90;;;;;;5132553;28;19953;-73
2022/08/17 02:29:15;;;;;;;;;;;13.00;99.90;;;;;;5134014;27;19904;-73
2022/08/17 02:31:42;;;;;;;;;;;13.00;99.90;;;;;;5136288;27;19903;-73
2022/08/17 02:34:08;;;;;;;;;;;13.00;99.90;;;;;;5137068;27;19903;-73
2022/08/17 02:36:34;;;;;;;;;;;13.00;99.90;;;;;;5136250;27;19926;-71
2022/08/17 02:39:00;;;;;;;;;;;12.90;99.90;;;;;;5135948;27;20215;-73
2022/08/17 02:41:26;;;;;;;;;;;12.90;99.90;;;;;;5136570;27;19916;-73
2022/08/17 02:43:52;;;;;;;;;;;12.90;99.90;;;;;;5136026;27;19912;-73
2022/08/17 02:46:18;;;;;;;;;;;13.00;99.90;;;;;;5136375;27;19955;-73
2022/08/17 02:48:43;;;;;;;;;;;13.00;99.90;;;;;;5135719;27;20248;-73
2022/08/17 02:51:09;;;;;;;;;;;13.10;99.90;;;;;;5135848;27;20272;-72
2022/08/17 02:53:35;;;;;;;;;;;13.00;99.90;;;;;;5136307;27;20333;-73
2022/08/17 02:56:00;;;;;;;;;;;13.00;99.90;;;;;;5135389;27;19904;-74
2022/08/17 02:58:26;;;;;;;;;;;13.10;99.90;;;;;;5136272;27;19911;-73
2022/08/17 03:00:52;;;;;;;;;;;13.00;99.90;;;;;;5135671;27;19910;-73
2022/08/17 03:03:17;;;;;;;;;;;13.10;99.90;;;;;;5136026;27;19907;-73
2022/08/17 03:05:44;;;;;;;;;;;13.10;99.90;;;;;;5135176;27;19907;-73
2022/08/17 03:08:10;;;;;;;;;;;13.10;99.90;;;;;;5136235;27;19998;-73
2022/08/17 03:10:36;;;;;;;;;;;13.10;99.90;;;;;;5135722;27;19936;-73
2022/08/17 03:13:02;;;;;;;;;;;13.00;99.90;;;;;;5135025;27;20245;-73
2022/08/17 03:15:30;;;;;;;;;;;13.10;99.90;;;;;;5135946;27;19956;-73
2022/08/17 03:17:56;;;;;;;;;;;13.10;99.90;;;;;;5135554;27;19911;-73
2022/08/17 03:20:23;;;;;;;;;;;13.10;99.90;;;;;;5135946;27;20015;-74
2022/08/17 03:22:50;;;;;;;;;;;13.10;99.90;;;;;;5135148;27;19903;-73
2022/08/17 03:25:17;;;;;;;;;;;13.00;99.90;;;;;;5135671;27;19904;-73
2022/08/17 03:27:43;;;;;;;;;;;13.00;99.90;;;;;;5135107;27;19908;-73
2022/08/17 03:30:09;;;;;;;;;;;13.00;99.90;;;;;;5135456;27;20309;-72
2022/08/17 03:32:45;;;;;;;;;;;13.00;99.90;;;;;;5134847;27;19959;-72
2022/08/17 03:35:13;;;;;;;;;;;13.00;99.90;;;;;;5135911;27;19920;-73
2022/08/17 03:37:38;;;;;;;;;;;13.00;99.90;;;;;;5135470;27;19910;-73
2022/08/17 03:40:06;;;;;;;;;;;13.00;99.90;;;;;;5134762;27;19907;-72
2022/08/17 03:42:32;;;;;;;;;;;13.00;99.90;;;;;;5116300;27;19915;-73
2022/08/17 03:44:58;;;;;;;;;;;13.00;99.90;;;;;;5134523;27;19914;-73
2022/08/17 03:58:22;;;;;;;;;;;13.00;99.90;;;;;;5135115;27;19962;-73
2022/08/17 04:00:48;;;;;;;;;;;13.00;99.90;;;;;;5134406;27;19903;-72
2022/08/17 04:03:14;;;;;;;;;;;13.00;99.90;;;;;;5134984;27;20356;-72
2022/08/17 04:05:40;;;;;;;;;;;13.10;99.90;;;;;;5135138;27;20352;-73
2022/08/17 04:08:06;;;;;;;;;;;13.10;99.90;;;;;;5134456;27;19911;-73
2022/08/17 04:10:31;;;;;;;;;;;13.10;99.90;;;;;;5134681;27;20301;-72
2022/08/17 04:12:57;;;;;;;;;;;13.00;99.90;;;;;;5133779;27;19907;-72
2022/08/17 04:15:23;;;;;;;;;;;13.10;99.90;;;;;;5134880;27;19904;-72
2022/08/17 04:17:50;;;;;;;;;;;13.10;99.90;;;;;;5133822;27;19911;-73
2022/08/17 04:20:17;;;;;;;;;;;13.10;99.90;;;;;;5134477;27;19939;-73
2022/08/17 04:22:58;;;;;;;;;;;13.10;99.90;;;;;;5133822;27;19915;-73
2022/08/17 04:25:23;;;;;;;;;;;13.10;99.90;;;;;;5134601;27;19911;-72
2022/08/17 04:27:49;;;;;;;;;;;13.00;99.90;;;;;;5133696;27;19904;-73
2022/08/17 04:30:15;;;;;;;;;;;13.10;99.90;;;;;;5134082;27;19990;-72
2022/08/17 04:32:52;;;;;;;;;;;13.10;99.90;;;;;;5133664;27;19903;-72
2022/08/17 04:35:23;;;;;;;;;;;13.10;99.90;;;;;;5134388;27;20233;-72
2022/08/17 04:37:49;;;;;;;;;;;13.10;99.90;;;;;;5133759;27;20031;-73
2022/08/17 04:43:00;;;;;;;;;;;13.20;99.90;;;;;;5092636;28;19931;-73
2022/08/17 04:45:25;;;;;;;;;;;13.20;99.90;;;;;;5093639;28;19905;-73
2022/08/17 04:47:51;;;;;;;;;;;13.20;99.90;;;;;;5092350;28;19910;-72
2022/08/17 04:50:18;;;;;;;;;;;13.30;99.90;;;;;;5092600;28;20272;-73
2022/08/17 04:52:44;;;;;;;;;;;13.30;99.90;;;;;;5092173;28;19911;-73
2022/08/17 04:55:10;;;;;;;;;;;13.30;99.90;;;;;;5092724;28;19910;-73
2022/08/17 04:57:36;;;;;;;;;;;13.30;99.90;;;;;;5092814;28;19999;-72
2022/08/17 05:00:02;;;;;;;;;;;13.20;99.90;;;;;;5092228;28;19908;-72
2022/08/17 05:02:27;;;;;;;;;;;13.20;99.90;;;;;;5093272;28;19950;-72
2022/08/17 05:04:53;;;;;;;;;;;13.10;99.90;;;;;;5091117;28;19904;-72
2022/08/17 05:07:18;;;;;;;;;;;13.10;99.90;;;;;;5092688;28;19999;-72
2022/08/17 05:09:44;;;;;;;;;;;13.10;99.90;;;;;;5092846;28;20303;-73
2022/08/17 05:12:10;;;;;;;;;;;13.10;99.90;;;;;;5092754;28;19965;-73
2022/08/17 05:14:37;;;;;;;;;;;13.20;99.90;;;;;;5092738;28;19904;-72
2022/08/17 05:17:02;;;;;;;;;;;13.20;99.90;;;;;;5091162;28;20384;-72
2022/08/17 05:19:28;;;;;;;;;;;13.10;99.90;;;;;;5092827;28;19978;-72
2022/08/17 05:21:53;;;;;;;;;;;13.10;99.90;;;;;;5092033;28;20302;-73
2022/08/17 05:24:19;;;;;;;;;;;13.10;99.90;;;;;;5093279;28;19904;-73
2022/08/17 05:26:44;;;;;;;;;;;13.10;99.90;;;;;;5091929;28;19904;-73
2022/08/17 05:29:10;;;;;;;;;;;13.00;99.90;;;;;;5092885;28;20348;-73
2022/08/17 05:31:36;;;;;;;;;;;13.00;99.90;;;;;;5091428;28;19904;-73
2022/08/17 05:34:02;;;;;;;;;;;13.00;99.90;;;;;;5091958;28;19908;-73
2022/08/17 05:36:27;;;;;;;;;;;13.00;99.90;;;;;;5091526;28;20359;-73
2022/08/17 05:38:53;;;;;;;;;;;12.90;99.90;;;;;;5091896;28;19994;-73
2022/08/17 05:41:19;;;;;;;;;;;12.90;99.90;;;;;;5106184;28;19961;-73
2022/08/17 05:43:44;;;;;;;;;;;12.90;99.90;;;;;;5133067;28;20305;-73
2022/08/17 05:46:31;;;;;;;;;;;13.00;99.90;;;;;;5133670;28;19962;-73
2022/08/17 05:49:01;;;;;;;;;;;13.00;99.90;;;;;;5132859;28;19911;-73
2022/08/17 05:51:41;;;;;;;;;;;13.00;99.90;;;;;;5133331;28;19904;-73
2022/08/17 05:54:19;;;;;;;;;;;13.00;99.90;;;;;;5132875;28;19928;-72
2022/08/17 05:56:47;;;;;;;;;;;12.90;99.90;;;;;;5132795;28;19910;-73
2022/08/17 05:59:16;;;;;;;;;;;13.00;99.90;;;;;;5133344;28;19968;-73
2022/08/17 06:02:01;;;;;;;;;;;13.00;99.90;;;;;;5132671;28;19903;-73
2022/08/17 06:04:27;;;;;;;;;;;13.10;99.90;;;;;;5082121;27;19903;-73
2022/08/17 06:06:56;;;;;;;;;;;13.20;99.90;;;;;;5136246;27;19938;-73
2022/08/17 06:09:28;;;;;;;;;;;13.20;99.90;;;;;;5136753;27;19907;-73
2022/08/17 06:12:12;;;;;;;;;;;13.10;99.90;;;;;;5136341;27;19903;-73
2022/08/17 06:14:47;;;;;;;;;;;13.20;99.90;;;;;;5136592;27;19903;-72
2022/08/17 06:17:17;;;;;;;;;;;13.20;99.90;;;;;;5136929;27;19914;-72
2022/08/17 06:19:46;;;;;;;;;;;13.10;99.90;;;;;;5117929;27;19915;-72
2022/08/17 06:22:13;;;;;;;;;;;13.10;99.90;;;;;;5136728;27;19918;-72
2022/08/17 06:24:46;;;;;;;;;;;13.10;99.90;;;;;;5136878;27;19948;-72
2022/08/17 06:27:11;;;;;;;;;;;13.10;99.90;;;;;;5136761;27;19904;-72
2022/08/17 06:29:45;;;;;;;;;;;13.20;99.90;;;;;;5136783;27;19904;-73
2022/08/17 06:32:12;;;;;;;;;;;13.20;99.90;;;;;;5136508;27;19903;-72
2022/08/17 06:34:38;;;;;;;;;;;13.30;99.90;;;;;;5136609;27;19910;-73
2022/08/17 06:37:17;;;;;;;;;;;13.40;99.90;;;;;;5135773;27;19908;-73
2022/08/17 06:39:51;;;;;;;;;;;13.40;99.90;;;;;;5136010;27;19915;-73
2022/08/17 06:42:29;;;;;;;;;;;13.50;99.90;;;;;;5117621;27;20268;-73
2022/08/17 06:45:04;;;;;;;;;;;13.40;99.90;;;;;;5135768;27;19949;-73
2022/08/17 06:47:29;;;;;;;;;;;13.50;99.90;;;;;;5136352;27;19938;-72
2022/08/17 06:49:56;;;;;;;;;;;13.50;99.90;;;;;;5135823;27;19945;-72
2022/08/17 06:52:24;;;;;;;;;;;13.50;99.90;;;;;;5136084;27;19903;-72
2022/08/17 06:55:08;;;;;;;;;;;13.50;99.90;;;;;;5135577;27;19903;-73
2022/08/17 06:57:45;;;;;;;;;;;13.50;99.90;;;;;;5135985;27;20415;-72
2022/08/17 07:00:16;;;;;;;;;;;13.50;99.90;;;;;;5135902;27;20363;-72
2022/08/17 07:02:44;;;;;;;;;;;13.50;99.90;;;;;;5135907;27;20010;-73
2022/08/17 07:05:11;;;;;;;;;;;13.50;99.90;;;;;;5136361;27;19956;-72
2022/08/17 07:10:24;;;;;;;;;;;13.60;99.90;;;;;;5136186;27;19956;-73
2022/08/17 07:12:50;;;;;;;;;;;13.60;99.90;;;;;;5135098;27;19910;-73
2022/08/17 07:15:20;;;;;;;;;;;13.70;99.90;;;;;;5135133;27;19915;-73
2022/08/17 07:17:46;;;;;;;;;;;13.80;99.90;;;;;;5134669;27;19903;-73
2022/08/17 07:20:14;;;;;;;;;;;13.80;99.90;;;;;;5135950;27;20301;-73
2022/08/17 07:22:40;;;;;;;;;;;13.90;99.90;;;;;;5135584;27;19911;-73
2022/08/17 07:25:07;;;;;;;;;;;13.90;99.90;;;;;;5135236;27;19908;-73
2022/08/17 07:27:35;;;;;;;;;;;13.90;99.90;;;;;;5136023;27;19930;-73
2022/08/17 07:30:16;;;;;;;;;;;13.90;99.90;;;;;;5135002;27;19907;-73
2022/08/17 07:32:44;;;;;;;;;;;13.90;99.90;;;;;;5135023;27;19903;-72
2022/08/17 07:35:10;;;;;;;;;;;13.90;99.90;;;;;;5135110;27;19907;-73
2022/08/17 07:37:39;;;;;;;;;;;14.00;99.90;;;;;;5135186;27;19961;-73
2022/08/17 07:40:14;;;;;;;;;;;14.10;99.90;;;;;;5134671;27;19910;-73
2022/08/17 07:42:40;;;;;;;;;;;14.10;99.90;;;;;;5135411;27;20006;-73
2022/08/17 07:48:17;;;;;;;;;;;14.20;99.90;;;;;;5134827;27;19947;-73
2022/08/17 07:50:36;;;;;;;;;;;14.20;99.90;;;;;;5135031;27;19925;-73
2022/08/17 07:53:15;;;;;;;;;;;14.30;99.90;;;;;;5134383;27;20387;-73
2022/08/17 07:55:40;;;;;;;;;;;14.30;99.90;;;;;;5135133;27;19904;-73
2022/08/17 07:58:06;;;;;;;;;;;14.30;99.90;;;;;;5134502;27;20715;-73
2022/08/17 08:00:32;;;;;;;;;;;14.40;99.90;;;;;;5135182;27;19945;-73
2022/08/17 08:03:21;;;;;;;;;;;14.50;99.90;;;;;;5134586;27;19915;-73
2022/08/17 08:05:59;;;;;;;;;;;14.40;99.90;;;;;;5134205;27;19904;-73
2022/08/17 08:08:46;;;;;;;;;;;14.50;99.90;;;;;;5134956;27;19903;-73
2022/08/17 08:11:14;;;;;;;;;;;14.60;99.90;;;;;;5115374;27;19982;-73
2022/08/17 08:13:42;;;;;;;;;;;14.60;99.90;;;;;;5134253;27;20237;-73
2022/08/17 08:16:10;;;;;;;;;;;14.70;99.90;;;;;;5133912;27;19953;-72
2022/08/17 08:18:42;;;;;;;;;;;14.70;99.90;;;;;;5134979;27;19918;-72
2022/08/17 08:21:19;;;;;;;;;;;14.70;99.90;;;;;;5134188;27;19935;-72
2022/08/17 08:23:48;;;;;;;;;;;14.70;99.90;;;;;;5134674;27;19946;-73
2022/08/17 08:26:22;;;;;;;;;;;14.80;99.90;;;;;;5134634;27;20002;-73
2022/08/17 08:29:00;;;;;;;;;;;14.80;99.90;;;;;;5133812;27;20336;-73
2022/08/17 08:31:44;;;;;;;;;;;14.90;99.90;;;;;;5133684;27;19903;-73
2022/08/17 08:34:09;;;;;;;;;;;14.90;99.90;;;;;;5133410;27;20409;-73
2022/08/17 08:36:38;;;;;;;;;;;15.00;99.90;;;;;;5133796;27;19911;-74
2022/08/17 08:39:14;;;;;;;;;;;15.10;99.90;;;;;;5133180;27;19911;-73
2022/08/17 08:41:44;;;;;;;;;;;15.20;99.90;;;;;;5133927;27;19919;-73
2022/08/17 08:44:30;;;;;;;;;;;15.30;99.90;;;;;;5133192;27;19904;-73
2022/08/17 08:47:16;;;;;;;;;;;15.30;99.90;;;;;;5133216;27;19947;-73
2022/08/17 08:49:42;;;;;;;;;;;15.30;99.90;;;;;;5133458;27;19949;-73
2022/08/17 08:52:29;;;;;;;;;;;15.20;99.90;;;;;;5133421;27;20332;-72
2022/08/17 08:55:09;;;;;;;;;;;15.30;99.90;;;;;;5133168;27;20026;-73
2022/08/17 08:57:37;;;;;;;;;;;15.40;99.90;;;;;;5135448;27;19910;-74
2022/08/17 09:00:02;;;;;;;;;;;15.40;99.90;;;;;;5134536;27;19938;-73
2022/08/17 09:02:35;;;;;;;;;;;15.40;99.90;;;;;;5135166;27;20256;-73
2022/08/17 09:05:02;;;;;;;;;;;15.40;99.90;;;;;;5134043;27;19915;-73
2022/08/17 09:07:45;;;;;;;;;;;15.50;99.90;;;;;;5134231;27;20251;-73
2022/08/17 09:10:19;;;;;;;;;;;15.60;99.90;;;;;;5114880;27;20288;-73
2022/08/17 09:12:55;;;;;;;;;;;15.70;99.90;;;;;;5134022;27;19904;-76
2022/08/17 09:15:24;;;;;;;;;;;15.80;99.90;;;;;;5133589;27;19904;-74
2022/08/17 09:18:05;;;;;;;;;;;15.80;99.90;;;;;;5133322;27;19903;-72
2022/08/17 09:20:39;;;;;;;;;;;15.80;99.90;;;;;;5115500;28;19910;-73
2022/08/17 09:23:12;;;;;;;;;;;15.80;99.90;;;;;;5133164;28;19910;-73
2022/08/17 09:25:55;;;;;;;;;;;15.80;99.90;;;;;;5134003;28;19911;-73
2022/08/17 09:28:29;;;;;;;;;;;15.80;99.90;;;;;;5134189;28;20248;-74
2022/08/17 09:31:01;;;;;;;;;;;15.90;99.90;;;;;;5133133;28;19947;-74
2022/08/17 09:33:28;;;;;;;;;;;15.80;99.90;;;;;;5115124;28;19903;-74
2022/08/17 09:36:02;;;;;;;;;;;15.70;99.90;;;;;;5132698;28;20032;-74
2022/08/17 09:38:34;;;;;;;;;;;15.80;99.90;;;;;;5133410;27;19915;-74
2022/08/17 09:41:11;;;;;;;;;;;15.80;99.90;;;;;;5136872;27;19931;-74
2022/08/17 09:43:40;;;;;;;;;;;15.80;99.90;;;;;;5137464;27;19944;-74
2022/08/17 09:46:13;;;;;;;;;;;15.90;99.90;;;;;;5137096;27;19904;-73
2022/08/17 09:49:06;;;;;;;;;;;15.90;99.90;;;;;;5137414;27;19903;-74
2022/08/17 09:51:31;;;;;;;;;;;16.00;99.90;;;;;;5132276;27;19904;-74
2022/08/17 09:53:57;;;;;;;;;;;16.10;99.90;;;;;;5136731;27;20376;-74
2022/08/17 09:56:37;;;;;;;;;;;16.10;99.90;;;;;;5137507;27;19907;-76
2022/08/17 09:59:21;;;;;;;;;;;16.20;99.90;;;;;;5136586;27;20289;-74
2022/08/17 10:01:54;;;;;;;;;;;16.30;99.90;;;;;;5137625;27;20340;-74
2022/08/17 10:04:22;;;;;;;;;;;16.40;99.90;;;;;;5137373;27;19980;-74
2022/08/17 10:07:05;;;;;;;;;;;16.40;99.90;;;;;;5137302;27;19903;-75
2022/08/17 10:09:31;;;;;;;;;;;16.50;99.90;;;;;;5137752;27;19903;-75
2022/08/17 10:12:22;;;;;;;;;;;16.50;99.90;;;;;;5137957;27;19956;-76
2022/08/17 10:15:12;;;;;;;;;;;16.50;99.90;;;;;;5088923;27;19907;-76
2022/08/17 10:17:54;;;;;;;;;;;16.60;99.90;;;;;;5090201;27;19939;-74
2022/08/17 10:20:32;;;;;;;;;;;16.60;99.90;;;;;;5138531;27;19918;-75
2022/08/17 10:28:31;;;;;;;;;;;16.80;99.90;;;;;;5136802;27;19952;-74
2022/08/17 10:30:58;;;;;;;;;;;16.90;99.90;;;;;;5136000;27;20345;-73
2022/08/17 10:33:32;;;;;;;;;;;17.00;99.90;;;;;;5136994;27;20240;-75
2022/08/17 10:36:05;;;;;;;;;;;17.10;99.90;;;;;;5136240;27;19944;-74
2022/08/17 10:38:31;;;;;;;;;;;17.30;99.90;;;;;;5136555;27;19911;-74
2022/08/17 10:40:57;;;;;;;;;;;17.20;99.90;;;;;;5135764;27;19916;-74
2022/08/17 10:43:46;;;;;;;;;;;17.20;99.90;;;;;;5136431;27;19960;-74
2022/08/17 10:46:11;;;;;;;;;;;17.30;99.90;;;;;;5122258;27;19911;-74
2022/08/17 10:48:37;;;;;;;;;;;17.30;99.90;;;;;;5136471;27;20128;-73
2022/08/17 10:51:08;;;;;;;;;;;17.30;99.90;;;;;;5117140;27;19915;-74
2022/08/17 10:53:33;;;;;;;;;;;17.40;99.90;;;;;;5136241;27;19918;-74
2022/08/17 10:56:17;;;;;;;;;;;17.50;99.90;;;;;;5135660;27;19907;-75
2022/08/17 10:58:53;;;;;;;;;;;17.50;99.90;;;;;;5136357;27;19916;-74
2022/08/17 11:01:31;;;;;;;;;;;17.60;99.90;;;;;;5136183;27;19986;-74
2022/08/17 11:03:58;;;;;;;;;;;17.60;99.90;;;;;;5135779;27;19924;-75
2022/08/17 11:06:23;;;;;;;;;;;17.60;99.90;;;;;;5136098;27;19907;-74
2022/08/17 11:08:53;;;;;;;;;;;17.50;99.90;;;;;;5135409;27;19903;-74
2022/08/17 11:11:24;;;;;;;;;;;17.50;99.90;;;;;;5135635;27;19904;-74
2022/08/17 11:14:09;;;;;;;;;;;17.40;99.90;;;;;;5135698;27;19903;-74
2022/08/17 11:16:54;;;;;;;;;;;17.40;99.90;;;;;;5117469;27;20309;-74
2022/08/17 11:19:45;;;;;;;;;;;17.40;99.90;;;;;;5135642;27;20371;-74
2022/08/17 11:22:13;;;;;;;;;;;17.50;99.90;;;;;;5135474;27;20336;-74
2022/08/17 11:24:45;;;;;;;;;;;17.50;99.90;;;;;;5135786;27;19903;-74
2022/08/17 11:27:17;;;;;;;;;;;17.40;99.90;;;;;;5116817;27;19908;-74
2022/08/17 11:29:51;;;;;;;;;;;17.30;99.90;;;;;;5135311;27;20002;-74
2022/08/17 11:32:48;;;;;;;;;;;17.30;99.90;;;;;;5135128;27;19903;-74
2022/08/17 11:35:19;;;;;;;;;;;17.30;99.90;;;;;;5113218;27;19918;-74
2022/08/17 11:37:57;;;;;;;;;;;17.40;99.90;;;;;;5135431;27;19956;-74
2022/08/17 11:40:37;;;;;;;;;;;17.50;99.90;;;;;;5135398;27;20255;-73
2022/08/17 11:43:12;;;;;;;;;;;17.70;99.90;;;;;;5134904;27;19919;-75
2022/08/17 11:45:37;;;;;;;;;;;17.80;99.90;;;;;;5135401;27;19903;-74
2022/08/17 11:53:43;;;;;;;;;;;18.30;99.90;;;;;;5135081;27;20335;-75
2022/08/17 11:56:10;;;;;;;;;;;18.30;99.90;;;;;;5134181;27;19927;-74
2022/08/17 11:58:40;;;;;;;;;;;18.50;99.90;;;;;;5135059;27;19918;-74
2022/08/17 12:01:08;;;;;;;;;;;18.50;99.90;;;;;;5134472;27;19903;-75
2022/08/17 12:03:33;;;;;;;;;;;18.50;99.90;;;;;;5116064;27;19903;-74
2022/08/17 12:06:19;;;;;;;;;;;18.70;99.90;;;;;;5134812;27;20297;-75
2022/08/17 12:09:04;;;;;;;;;;;18.70;99.90;;;;;;5098354;27;20227;-74
2022/08/17 12:11:41;;;;;;;;;;;18.70;99.90;;;;;;5134802;27;20347;-74
2022/08/17 12:14:07;;;;;;;;;;;18.80;99.90;;;;;;5133882;27;19903;-74
2022/08/17 12:16:33;;;;;;;;;;;18.70;99.90;;;;;;5134314;27;20355;-74
2022/08/17 12:19:01;;;;;;;;;;;18.60;99.90;;;;;;5133636;27;19920;-74
2022/08/17 12:21:29;;;;;;;;;;;18.70;99.90;;;;;;5134587;27;19903;-74
2022/08/17 12:24:13;;;;;;;;;;;18.60;99.90;;;;;;5134741;27;19998;-74
2022/08/17 12:26:42;;;;;;;;;;;18.50;99.90;;;;;;5134619;27;19949;-74
2022/08/17 12:29:13;;;;;;;;;;;18.30;99.90;;;;;;5133761;27;19943;-74
2022/08/17 12:31:44;;;;;;;;;;;18.40;99.90;;;;;;5134111;27;19909;-74
2022/08/17 12:34:25;;;;;;;;;;;18.50;99.90;;;;;;5133610;27;19903;-75
2022/08/17 12:36:53;;;;;;;;;;;18.50;99.90;;;;;;5134125;27;20001;-75
2022/08/17 12:39:20;;;;;;;;;;;18.50;99.90;;;;;;5133597;27;20226;-75
2022/08/17 12:41:47;;;;;;;;;;;18.70;99.90;;;;;;5134315;27;19915;-75
2022/08/17 12:44:17;;;;;;;;;;;18.80;99.90;;;;;;5133788;27;19913;-75
2022/08/17 12:46:51;;;;;;;;;;;18.90;99.90;;;;;;5134197;27;20367;-74
2022/08/17 12:49:22;;;;;;;;;;;19.00;99.90;;;;;;5133458;27;19907;-75
2022/08/17 12:51:48;;;;;;;;;;;19.00;99.90;;;;;;5133777;27;19911;-75
2022/08/17 12:54:26;;;;;;;;;;;19.00;99.90;;;;;;5133568;27;19914;-75
2022/08/17 12:56:51;;;;;;;;;;;18.90;99.90;;;;;;5115258;27;20366;-75
2022/08/17 12:59:18;;;;;;;;;;;18.90;99.90;;;;;;5132748;27;20014;-75
2022/08/17 13:01:44;;;;;;;;;;;18.90;99.90;;;;;;5133694;27;19954;-75
2022/08/17 13:04:14;;;;;;;;;;;18.80;99.90;;;;;;5132979;27;19907;-75
2022/08/17 13:06:45;;;;;;;;;;;18.80;99.90;;;;;;5132953;27;20304;-75
2022/08/17 13:09:13;;;;;;;;;;;18.80;99.90;;;;;;5133193;27;19908;-75
2022/08/17 13:11:46;;;;;;;;;;;18.90;99.90;;;;;;5133110;27;19904;-75
2022/08/17 13:14:13;;;;;;;;;;;18.90;99.90;;;;;;5132540;27;19911;-74
2022/08/17 13:16:39;;;;;;;;;;;18.80;99.90;;;;;;5133040;27;19904;-74
2022/08/17 13:19:07;;;;;;;;;;;18.80;99.90;;;;;;5132969;27;20360;-74
2022/08/17 13:21:33;;;;;;;;;;;18.80;99.90;;;;;;5114659;28;19984;-74
2022/08/17 13:23:59;;;;;;;;;;;18.80;99.90;;;;;;5132839;28;19907;-75
2022/08/17 13:27:03;;;;;;;;;;;18.80;99.90;;;;;;5133281;28;19965;-74
2022/08/17 13:29:38;;;;;;;;;;;18.80;99.90;;;;;;5029496;28;19905;-74
2022/08/17 13:32:05;;;;;;;;;;;18.70;99.90;;;;;;5029122;28;19909;-74
2022/08/17 13:34:30;;;;;;;;;;;18.70;99.90;;;;;;5029359;28;19917;-75
2022/08/17 13:37:14;;;;;;;;;;;18.80;99.90;;;;;;5029204;28;20020;-74
2022/08/17 13:39:40;;;;;;;;;;;18.90;99.90;;;;;;5029516;28;19914;-74
2022/08/17 13:42:26;;;;;;;;;;;19.00;99.90;;;;;;5029039;28;20248;-74
2022/08/17 13:44:51;;;;;;;;;;;19.00;99.90;;;;;;5029743;28;19911;-74
2022/08/17 13:47:17;;;;;;;;;;;19.10;99.90;;;;;;5028945;28;20525;-74
2022/08/17 13:49:43;;;;;;;;;;;19.10;99.90;;;;;;5029468;28;19909;-75
2022/08/17 13:52:27;;;;;;;;;;;19.10;99.90;;;;;;5028761;28;19905;-75
2022/08/17 13:54:53;;;;;;;;;;;19.00;99.90;;;;;;5028952;28;19916;-75
2022/08/17 13:57:21;;;;;;;;;;;19.00;99.90;;;;;;5028738;28;20018;-75
2022/08/17 13:59:49;;;;;;;;;;;18.90;99.90;;;;;;5062779;28;19912;-75
2022/08/17 14:02:17;;;;;;;;;;;18.90;99.90;;;;;;5132134;28;19908;-75
2022/08/17 14:04:43;;;;;;;;;;;19.00;99.90;;;;;;5132806;28;19907;-74
2022/08/17 14:07:12;;;;;;;;;;;19.00;99.90;;;;;;5132189;28;19904;-74
2022/08/17 14:09:56;;;;;;;;;;;19.00;99.90;;;;;;5132745;28;20298;-74
2022/08/17 14:12:23;;;;;;;;;;;19.00;99.90;;;;;;5132267;28;19956;-74
2022/08/17 14:14:49;;;;;;;;;;;18.90;99.90;;;;;;5132012;28;19914;-74
2022/08/17 14:17:15;;;;;;;;;;;19.00;99.90;;;;;;5131794;28;19931;-74
2022/08/17 14:19:41;;;;;;;;;;;19.00;99.90;;;;;;5132474;28;19912;-74
2022/08/17 14:22:10;;;;;;;;;;;19.00;99.90;;;;;;5131951;28;19908;-74
2022/08/17 14:24:37;;;;;;;;;;;19.10;99.90;;;;;;5132749;27;19903;-74
2022/08/17 14:27:03;;;;;;;;;;;19.10;99.90;;;;;;5135812;27;20002;-74
2022/08/17 14:29:30;;;;;;;;;;;19.00;99.90;;;;;;5135912;27;19922;-74
2022/08/17 14:31:56;;;;;;;;;;;19.00;99.90;;;;;;5136399;27;20002;-74
2022/08/17 14:34:22;;;;;;;;;;;19.00;99.90;;;;;;5135542;27;20371;-74
2022/08/17 14:36:48;;;;;;;;;;;19.00;99.90;;;;;;5135648;27;19948;-74
2022/08/17 14:39:13;;;;;;;;;;;19.00;99.90;;;;;;5135705;27;19912;-74
2022/08/17 14:41:40;;;;;;;;;;;19.10;99.90;;;;;;5135907;27;19915;-74
2022/08/17 14:44:06;;;;;;;;;;;19.20;99.90;;;;;;5135430;27;19903;-74
2022/08/17 14:46:31;;;;;;;;;;;19.30;99.90;;;;;;5135720;27;19907;-74
2022/08/17 14:48:58;;;;;;;;;;;19.30;99.90;;;;;;5135517;27;20264;-74
2022/08/17 14:51:27;;;;;;;;;;;19.40;99.90;;;;;;5116455;27;19986;-74
2022/08/17 14:53:53;;;;;;;;;;;19.50;99.90;;;;;;5136065;27;20255;-74
2022/08/17 14:56:18;;;;;;;;;;;19.50;99.90;;;;;;5134898;27;19907;-74
2022/08/17 14:58:44;;;;;;;;;;;19.60;99.90;;;;;;5135628;27;19980;-74
2022/08/17 15:01:11;;;;;;;;;;;19.70;99.90;;;;;;5135282;27;19903;-75
2022/08/17 15:03:37;;;;;;;;;;;19.80;99.90;;;;;;5136111;27;19911;-74